Time,TemperatureF,DewpointF,PressureIn,WindDirection,WindDirectionDegrees,WindSpeedMPH,WindSpeedGustMPH,Humidity,HourlyPrecipIn,Conditions,Clouds,dailyrainin,SoftwareType,DateUTC
2013-10-18 00:03:00,59.1,54.0,29.92,NW,304,0.0,0.0,83,0.00,,,0.00,weatherlink.com 1.10,2013-10-18 07:03:00,
2013-10-18 00:18:00,59.1,54.0,29.92,NW,305,0.0,0.0,83,0.00,,,0.00,weatherlink.com 1.10,2013-10-18 07:18:00,
2013-10-18 00:33:00,58.5,53.0,29.92,NW,305,0.0,0.0,82,0.00,,,0.00,weatherlink.com 1.10,2013-10-18 07:33:00,
2013-10-18 00:48:00,57.7,52.0,29.92,NW,305,0.0,0.0,82,0.00,,,0.00,weatherlink.com 1.10,2013-10-18 07:48:00,
2013-10-18 01:03:00,57.6,53.0,29.92,NW,305,0.0,0.0,84,0.00,,,0.00,weatherlink.com 1.10,2013-10-18 08:03:00,
2013-10-18 01:18:00,57.8,53.0,29.92,NW,305,0.0,0.0,84,0.00,,,0.00,weatherlink.com 1.10,2013-10-18 08:18:00,
2013-10-18 01:33:00,57.5,53.0,29.92,NW,305,0.0,0.0,84,0.00,,,0.00,weatherlink.com 1.10,2013-10-18 08:33:00,
2013-10-18 01:48:00,56.8,52.0,29.93,NW,305,0.0,0.0,84,0.00,,,0.00,weatherlink.com 1.10,2013-10-18 08:48:00,
2013-10-18 02:03:00,56.7,52.0,29.93,NW,305,0.0,0.0,85,0.00,,,0.00,weatherlink.com 1.10,2013-10-18 09:03:00,
2013-10-18 02:18:00,56.2,52.0,29.93,NW,305,0.0,0.0,85,0.00,,,0.00,weatherlink.com 1.10,2013-10-18 09:18:00,
2013-10-18 02:33:00,56.1,52.0,29.92,NW,305,0.0,0.0,85,0.00,,,0.00,weatherlink.com 1.10,2013-10-18 09:33:00,
2013-10-18 02:48:00,55.6,51.0,29.92,NW,305,0.0,0.0,85,0.00,,,0.00,weatherlink.com 1.10,2013-10-18 09:48:00,
2013-10-18 03:03:00,55.4,51.0,29.92,NW,305,0.0,0.0,86,0.00,,,0.00,weatherlink.com 1.10,2013-10-18 10:03:00,
2013-10-18 03:18:00,55.2,51.0,29.93,NW,305,0.0,0.0,86,0.00,,,0.00,weatherlink.com 1.10,2013-10-18 10:18:00,
2013-10-18 03:33:00,54.9,51.0,29.93,NW,305,0.0,1.0,86,0.00,,,0.00,weatherlink.com 1.10,2013-10-18 10:33:00,
2013-10-18 03:48:00,54.8,51.0,29.92,NW,305,0.0,0.0,87,0.00,,,0.00,weatherlink.com 1.10,2013-10-18 10:48:00,
2013-10-18 04:03:00,54.8,51.0,29.92,NW,305,0.0,0.0,87,0.00,,,0.00,weatherlink.com 1.10,2013-10-18 11:03:00,
2013-10-18 04:18:00,54.4,51.0,29.93,NW,305,0.0,0.0,87,0.00,,,0.00,weatherlink.com 1.10,2013-10-18 11:18:00,
2013-10-18 04:33:00,54.4,51.0,29.93,NW,305,0.0,0.0,88,0.00,,,0.00,weatherlink.com 1.10,2013-10-18 11:33:00,
2013-10-18 04:48:00,54.3,51.0,29.93,NW,305,0.0,0.0,88,0.00,,,0.00,weatherlink.com 1.10,2013-10-18 11:48:00,
2013-10-18 05:03:00,53.9,50.0,29.93,NW,305,0.0,0.0,87,0.00,,,0.00,weatherlink.com 1.10,2013-10-18 12:03:00,
2013-10-18 05:18:00,53.2,50.0,29.93,NW,305,0.0,0.0,88,0.00,,,0.00,weatherlink.com 1.10,2013-10-18 12:18:00,
2013-10-18 05:33:00,53.1,50.0,29.93,NW,305,0.0,0.0,88,0.00,,,0.00,weatherlink.com 1.10,2013-10-18 12:33:00,
2013-10-18 05:48:00,53.0,50.0,29.93,NW,305,0.0,0.0,88,0.00,,,0.00,weatherlink.com 1.10,2013-10-18 12:48:00,
2013-10-18 06:03:00,53.1,50.0,29.93,NW,305,0.0,1.0,88,0.00,,,0.00,weatherlink.com 1.10,2013-10-18 13:03:00,
2013-10-18 06:18:00,52.9,50.0,29.94,West,280,0.0,1.0,88,0.00,,,0.00,weatherlink.com 1.10,2013-10-18 13:18:00,
2013-10-18 06:33:00,52.7,49.0,29.94,West,281,0.0,1.0,88,0.00,,,0.00,weatherlink.com 1.10,2013-10-18 13:33:00,
2013-10-18 06:48:00,52.4,49.0,29.94,West,281,0.0,1.0,88,0.00,,,0.00,weatherlink.com 1.10,2013-10-18 13:48:00,
2013-10-18 07:03:00,52.2,49.0,29.94,West,280,0.0,0.0,88,0.00,,,0.00,weatherlink.com 1.10,2013-10-18 14:03:00,
2013-10-18 07:18:00,52.2,49.0,29.95,West,280,0.0,0.0,89,0.00,,,0.00,weatherlink.com 1.10,2013-10-18 14:18:00,
2013-10-18 07:33:00,52.7,50.0,29.95,West,281,0.0,0.0,89,0.00,,,0.00,weatherlink.com 1.10,2013-10-18 14:33:00,
2013-10-18 07:48:00,53.6,51.0,29.95,West,280,0.0,0.0,89,0.00,,,0.00,weatherlink.com 1.10,2013-10-18 14:48:00,
2013-10-18 08:03:00,55.0,52.0,29.96,West,280,0.0,1.0,89,0.00,,,0.00,weatherlink.com 1.10,2013-10-18 15:03:00,
2013-10-18 08:18:00,56.5,53.0,29.96,West,280,0.0,1.0,87,0.00,,,0.00,weatherlink.com 1.10,2013-10-18 15:18:00,
2013-10-18 08:33:00,59.5,54.0,29.96,West,280,0.0,0.0,82,0.00,,,0.00,weatherlink.com 1.10,2013-10-18 15:33:00,
2013-10-18 08:49:00,62.0,52.0,29.97,WNW,282,1.0,1.0,70,0.00,,,0.00,weatherlink.com 1.10,2013-10-18 15:49:00,
2013-10-18 09:04:00,64.4,51.0,29.97,NW,305,1.0,2.0,63,0.00,,,0.00,weatherlink.com 1.10,2013-10-18 16:04:00,
2013-10-18 09:19:00,66.1,51.0,29.98,NW,316,1.0,2.0,59,0.00,,,0.00,weatherlink.com 1.10,2013-10-18 16:19:00,
2013-10-18 09:34:00,68.4,50.0,29.98,NNE,21,0.0,3.0,52,0.00,,,0.00,weatherlink.com 1.10,2013-10-18 16:34:00,
2013-10-18 09:49:00,69.8,47.0,29.98,NNW,328,0.0,2.0,44,0.00,,,0.00,weatherlink.com 1.10,2013-10-18 16:49:00,
2013-10-18 10:04:00,71.2,46.0,29.97,NNE,23,0.0,2.0,40,0.00,,,0.00,weatherlink.com 1.10,2013-10-18 17:04:00,
2013-10-18 10:19:00,72.6,45.0,29.97,NNW,344,0.0,2.0,38,0.00,,,0.00,weatherlink.com 1.10,2013-10-18 17:19:00,
2013-10-18 10:49:00,76.2,42.0,29.97,SW,233,1.0,2.0,29,0.00,,,0.00,weatherlink.com 1.10,2013-10-18 17:49:00,
2013-10-18 11:04:00,77.3,42.0,29.96,SW,222,0.0,3.0,28,0.00,,,0.00,weatherlink.com 1.10,2013-10-18 18:04:00,
2013-10-18 11:19:00,78.2,41.0,29.96,SW,230,2.0,3.0,26,0.00,,,0.00,weatherlink.com 1.10,2013-10-18 18:19:00,
2013-10-18 11:34:00,79.3,41.0,29.96,WSW,237,2.0,3.0,25,0.00,,,0.00,weatherlink.com 1.10,2013-10-18 18:34:00,
2013-10-18 11:49:00,79.8,40.0,29.96,WSW,257,2.0,3.0,24,0.00,,,0.00,weatherlink.com 1.10,2013-10-18 18:49:00,
2013-10-18 12:04:00,81.0,41.0,29.95,WSW,238,0.0,6.0,24,0.00,,,0.00,weatherlink.com 1.10,2013-10-18 19:04:00,
2013-10-18 12:19:00,81.9,43.0,29.94,West,268,1.0,4.0,25,0.00,,,0.00,weatherlink.com 1.10,2013-10-18 19:19:00,
2013-10-18 12:34:00,82.7,49.0,29.94,SW,233,3.0,6.0,31,0.00,,,0.00,weatherlink.com 1.10,2013-10-18 19:34:00,
2013-10-18 12:49:00,81.8,51.0,29.93,SW,229,2.0,5.0,34,0.00,,,0.00,weatherlink.com 1.10,2013-10-18 19:49:00,
2013-10-18 13:04:00,81.5,51.0,29.93,WSW,248,4.0,5.0,34,0.00,,,0.00,weatherlink.com 1.10,2013-10-18 20:04:00,
2013-10-18 13:19:00,82.2,52.0,29.92,SW,233,1.0,5.0,35,0.00,,,0.00,weatherlink.com 1.10,2013-10-18 20:19:00,
2013-10-18 13:34:00,81.8,54.0,29.92,South,174,4.0,7.0,38,0.00,,,0.00,weatherlink.com 1.10,2013-10-18 20:34:00,
2013-10-18 13:49:00,81.2,55.0,29.91,SW,216,6.0,7.0,40,0.00,,,0.00,weatherlink.com 1.10,2013-10-18 20:49:00,
2013-10-18 14:04:00,81.0,54.0,29.91,WSW,238,1.0,6.0,39,0.00,,,0.00,weatherlink.com 1.10,2013-10-18 21:04:00,
2013-10-18 14:19:00,81.6,56.0,29.90,SW,227,1.0,4.0,41,0.00,,,0.00,weatherlink.com 1.10,2013-10-18 21:19:00,
2013-10-18 14:34:00,81.6,55.0,29.89,SSE,167,2.0,6.0,40,0.00,,,0.00,weatherlink.com 1.10,2013-10-18 21:34:00,
2013-10-18 14:49:00,81.5,56.0,29.89,SSW,211,2.0,6.0,42,0.00,,,0.00,weatherlink.com 1.10,2013-10-18 21:49:00,
2013-10-18 15:05:00,82.8,56.0,29.89,SW,214,2.0,5.0,40,0.00,,,0.00,weatherlink.com 1.10,2013-10-18 22:05:00,
2013-10-18 15:20:00,83.0,57.0,29.89,West,266,2.0,5.0,41,0.00,,,0.00,weatherlink.com 1.10,2013-10-18 22:20:00,
2013-10-18 15:35:00,83.9,50.0,29.89,West,271,2.0,7.0,31,0.00,,,0.00,weatherlink.com 1.10,2013-10-18 22:35:00,
2013-10-18 15:50:00,83.5,50.0,29.88,WSW,249,1.0,8.0,31,0.00,,,0.00,weatherlink.com 1.10,2013-10-18 22:50:00,
2013-10-18 16:05:00,82.7,52.0,29.88,WNW,289,2.0,6.0,34,0.00,,,0.00,weatherlink.com 1.10,2013-10-18 23:05:00,
2013-10-18 16:20:00,82.6,52.0,29.88,West,261,1.0,7.0,35,0.00,,,0.00,weatherlink.com 1.10,2013-10-18 23:20:00,
2013-10-18 16:35:00,82.1,53.0,29.88,WNW,293,3.0,6.0,36,0.00,,,0.00,weatherlink.com 1.10,2013-10-18 23:35:00,
2013-10-18 16:50:00,81.6,55.0,29.88,WNW,301,2.0,6.0,40,0.00,,,0.00,weatherlink.com 1.10,2013-10-18 23:50:00,
2013-10-18 17:08:00,80.1,55.0,29.88,WNW,300,3.0,6.0,42,0.00,,,0.00,weatherlink.com 1.10,2013-10-19 00:08:00,
2013-10-18 17:19:00,78.9,55.0,29.88,WNW,288,1.0,6.0,44,0.00,,,0.00,weatherlink.com 1.10,2013-10-19 00:19:00,
2013-10-18 17:34:00,77.3,57.0,29.88,WNW,282,3.0,8.0,49,0.00,,,0.00,weatherlink.com 1.10,2013-10-19 00:34:00,
2013-10-18 17:49:00,75.9,55.0,29.89,West,281,2.0,7.0,49,0.00,,,0.00,weatherlink.com 1.10,2013-10-19 00:49:00,
2013-10-18 18:04:00,74.6,54.0,29.89,West,266,0.0,4.0,49,0.00,,,0.00,weatherlink.com 1.10,2013-10-19 01:04:00,
2013-10-18 18:19:00,72.8,51.0,29.90,WNW,285,2.0,6.0,46,0.00,,,0.00,weatherlink.com 1.10,2013-10-19 01:19:00,
2013-10-18 18:34:00,71.9,50.0,29.91,NW,317,0.0,6.0,46,0.00,,,0.00,weatherlink.com 1.10,2013-10-19 01:34:00,
2013-10-18 18:49:00,71.0,50.0,29.91,WNW,288,0.0,1.0,48,0.00,,,0.00,weatherlink.com 1.10,2013-10-19 01:49:00,
2013-10-18 19:05:00,70.4,52.0,29.91,NW,305,0.0,3.0,52,0.00,,,0.00,weatherlink.com 1.10,2013-10-19 02:05:00,
2013-10-18 19:19:00,69.8,53.0,29.92,WNW,288,0.0,1.0,56,0.00,,,0.00,weatherlink.com 1.10,2013-10-19 02:19:00,
2013-10-18 19:35:00,69.2,55.0,29.92,WNW,293,0.0,3.0,61,0.00,,,0.00,weatherlink.com 1.10,2013-10-19 02:35:00,
2013-10-18 19:50:00,68.6,56.0,29.92,West,277,1.0,3.0,65,0.00,,,0.00,weatherlink.com 1.10,2013-10-19 02:50:00,
2013-10-18 20:05:00,67.9,56.0,29.92,WNW,303,0.0,2.0,66,0.00,,,0.00,weatherlink.com 1.10,2013-10-19 03:05:00,
2013-10-18 20:20:00,67.1,56.0,29.92,WNW,302,0.0,1.0,67,0.00,,,0.00,weatherlink.com 1.10,2013-10-19 03:20:00,
2013-10-18 20:35:00,66.6,56.0,29.93,NW,319,1.0,2.0,68,0.00,,,0.00,weatherlink.com 1.10,2013-10-19 03:35:00,
2013-10-18 20:50:00,65.9,55.0,29.93,NW,319,0.0,0.0,68,0.00,,,0.00,weatherlink.com 1.10,2013-10-19 03:50:00,
2013-10-18 21:05:00,64.9,56.0,29.93,NW,319,0.0,0.0,72,0.00,,,0.00,weatherlink.com 1.10,2013-10-19 04:05:00,
2013-10-18 21:20:00,64.2,55.0,29.93,NW,319,0.0,0.0,73,0.00,,,0.00,weatherlink.com 1.10,2013-10-19 04:20:00,
2013-10-18 21:35:00,63.0,55.0,29.93,NW,319,0.0,0.0,74,0.00,,,0.00,weatherlink.com 1.10,2013-10-19 04:35:00,
2013-10-18 21:50:00,62.1,55.0,29.94,NW,319,0.0,0.0,77,0.00,,,0.00,weatherlink.com 1.10,2013-10-19 04:50:00,
2013-10-18 22:05:00,62.0,55.0,29.94,NW,319,0.0,0.0,79,0.00,,,0.00,weatherlink.com 1.10,2013-10-19 05:05:00,
2013-10-18 22:20:00,61.9,56.0,29.94,NW,319,0.0,0.0,80,0.00,,,0.00,weatherlink.com 1.10,2013-10-19 05:20:00,
2013-10-18 22:35:00,61.5,55.0,29.94,NW,319,0.0,0.0,80,0.00,,,0.00,weatherlink.com 1.10,2013-10-19 05:35:00,
2013-10-18 22:50:00,60.8,55.0,29.94,NW,319,0.0,0.0,80,0.00,,,0.00,weatherlink.com 1.10,2013-10-19 05:50:00,
2013-10-18 23:05:00,60.6,55.0,29.94,NW,319,0.0,0.0,83,0.00,,,0.00,weatherlink.com 1.10,2013-10-19 06:05:00,
2013-10-18 23:20:00,60.7,56.0,29.94,NW,319,0.0,0.0,83,0.00,,,0.00,weatherlink.com 1.10,2013-10-19 06:20:00,
2013-10-18 23:35:00,60.5,55.0,29.94,NW,319,0.0,0.0,82,0.00,,,0.00,weatherlink.com 1.10,2013-10-19 06:35:00,
2013-10-18 23:50:00,60.1,55.0,29.94,NW,319,0.0,0.0,84,0.00,,,0.00,weatherlink.com 1.10,2013-10-19 06:50:00,